sensor_id;sensor_type;location;lat;lon;timestamp;P1;durP1;ratioP1;P2;durP2;ratioP2
67516;SDS011;68821;59.134;37.894;2023-06-14T00:02:10;4.63;;;2.13;;
67516;SDS011;68821;59.134;37.894;2023-06-14T00:04:36;6.60;;;2.30;;
67516;SDS011;68821;59.134;37.894;2023-06-14T00:07:03;6.30;;;2.65;;
67516;SDS011;68821;59.134;37.894;2023-06-14T00:09:29;4.25;;;1.90;;
67516;SDS011;68821;59.134;37.894;2023-06-14T00:11:55;7.65;;;2.47;;
67516;SDS011;68821;59.134;37.894;2023-06-14T00:14:21;6.65;;;2.15;;
67516;SDS011;68821;59.134;37.894;2023-06-14T00:16:47;5.07;;;2.30;;
67516;SDS011;68821;59.134;37.894;2023-06-14T00:19:13;4.70;;;2.25;;
67516;SDS011;68821;59.134;37.894;2023-06-14T00:21:39;5.13;;;2.40;;
67516;SDS011;68821;59.134;37.894;2023-06-14T00:24:07;5.55;;;2.35;;
67516;SDS011;68821;59.134;37.894;2023-06-14T00:26:33;4.70;;;2.08;;
67516;SDS011;68821;59.134;37.894;2023-06-14T00:28:59;4.82;;;2.20;;
67516;SDS011;68821;59.134;37.894;2023-06-14T00:31:25;5.93;;;2.22;;
67516;SDS011;68821;59.134;37.894;2023-06-14T00:33:51;4.80;;;1.92;;
67516;SDS011;68821;59.134;37.894;2023-06-14T00:36:17;6.07;;;2.20;;
67516;SDS011;68821;59.134;37.894;2023-06-14T00:38:43;5.50;;;2.25;;
67516;SDS011;68821;59.134;37.894;2023-06-14T00:41:09;4.80;;;1.67;;
67516;SDS011;68821;59.134;37.894;2023-06-14T00:43:35;9.38;;;2.13;;
67516;SDS011;68821;59.134;37.894;2023-06-14T00:46:01;6.53;;;2.10;;
67516;SDS011;68821;59.134;37.894;2023-06-14T00:48:28;4.55;;;2.30;;
67516;SDS011;68821;59.134;37.894;2023-06-14T00:50:54;8.30;;;2.75;;
67516;SDS011;68821;59.134;37.894;2023-06-14T00:53:21;4.05;;;1.77;;
67516;SDS011;68821;59.134;37.894;2023-06-14T00:55:48;4.50;;;1.95;;
67516;SDS011;68821;59.134;37.894;2023-06-14T00:58:14;4.85;;;2.22;;
67516;SDS011;68821;59.134;37.894;2023-06-14T01:00:40;5.60;;;2.05;;
67516;SDS011;68821;59.134;37.894;2023-06-14T01:03:07;4.88;;;1.90;;
67516;SDS011;68821;59.134;37.894;2023-06-14T01:05:33;6.80;;;1.90;;
67516;SDS011;68821;59.134;37.894;2023-06-14T01:10:51;6.03;;;2.35;;
67516;SDS011;68821;59.134;37.894;2023-06-14T01:13:33;4.50;;;2.10;;
67516;SDS011;68821;59.134;37.894;2023-06-14T01:16:01;5.93;;;2.10;;
67516;SDS011;68821;59.134;37.894;2023-06-14T01:18:28;4.72;;;1.92;;
67516;SDS011;68821;59.134;37.894;2023-06-14T01:20:55;4.68;;;2.30;;
67516;SDS011;68821;59.134;37.894;2023-06-14T01:23:22;4.97;;;1.75;;
67516;SDS011;68821;59.134;37.894;2023-06-14T01:25:49;6.05;;;2.35;;
67516;SDS011;68821;59.134;37.894;2023-06-14T01:28:19;7.88;;;2.40;;
67516;SDS011;68821;59.134;37.894;2023-06-14T01:30:51;8.25;;;2.28;;
67516;SDS011;68821;59.134;37.894;2023-06-14T01:33:19;5.30;;;2.13;;
67516;SDS011;68821;59.134;37.894;2023-06-14T01:35:51;7.10;;;2.17;;
67516;SDS011;68821;59.134;37.894;2023-06-14T01:38:22;6.22;;;2.50;;
67516;SDS011;68821;59.134;37.894;2023-06-14T01:40:50;10.13;;;2.20;;
67516;SDS011;68821;59.134;37.894;2023-06-14T01:43:19;9.65;;;2.58;;
67516;SDS011;68821;59.134;37.894;2023-06-14T01:45:47;10.98;;;2.47;;
67516;SDS011;68821;59.134;37.894;2023-06-14T01:48:16;6.85;;;2.15;;
67516;SDS011;68821;59.134;37.894;2023-06-14T01:50:43;8.25;;;2.30;;
67516;SDS011;68821;59.134;37.894;2023-06-14T01:53:09;10.38;;;2.10;;
67516;SDS011;68821;59.134;37.894;2023-06-14T01:55:36;5.60;;;2.20;;
67516;SDS011;68821;59.134;37.894;2023-06-14T01:58:03;5.43;;;2.15;;
67516;SDS011;68821;59.134;37.894;2023-06-14T02:00:30;8.02;;;1.98;;
67516;SDS011;68821;59.134;37.894;2023-06-14T02:02:56;11.48;;;2.72;;
67516;SDS011;68821;59.134;37.894;2023-06-14T02:05:22;7.03;;;2.25;;
67516;SDS011;68821;59.134;37.894;2023-06-14T02:07:49;10.75;;;2.50;;
67516;SDS011;68821;59.134;37.894;2023-06-14T02:10:17;5.43;;;2.22;;
67516;SDS011;68821;59.134;37.894;2023-06-14T02:12:43;9.55;;;2.67;;
67516;SDS011;68821;59.134;37.894;2023-06-14T02:15:10;8.50;;;2.25;;
67516;SDS011;68821;59.134;37.894;2023-06-14T02:17:45;7.28;;;2.10;;
67516;SDS011;68821;59.134;37.894;2023-06-14T02:20:15;12.85;;;3.30;;
67516;SDS011;68821;59.134;37.894;2023-06-14T02:22:41;13.48;;;3.28;;
67516;SDS011;68821;59.134;37.894;2023-06-14T02:25:07;10.55;;;3.95;;
67516;SDS011;68821;59.134;37.894;2023-06-14T02:27:34;11.88;;;3.00;;
67516;SDS011;68821;59.134;37.894;2023-06-14T02:30:00;18.17;;;3.13;;
67516;SDS011;68821;59.134;37.894;2023-06-14T02:32:27;14.00;;;2.85;;
67516;SDS011;68821;59.134;37.894;2023-06-14T02:34:53;9.60;;;2.83;;
67516;SDS011;68821;59.134;37.894;2023-06-14T02:37:20;19.25;;;3.60;;
67516;SDS011;68821;59.134;37.894;2023-06-14T02:39:46;19.25;;;2.85;;
67516;SDS011;68821;59.134;37.894;2023-06-14T02:42:12;9.13;;;2.47;;
67516;SDS011;68821;59.134;37.894;2023-06-14T02:44:38;13.77;;;3.47;;
67516;SDS011;68821;59.134;37.894;2023-06-14T02:47:04;13.32;;;2.65;;
67516;SDS011;68821;59.134;37.894;2023-06-14T02:49:30;18.67;;;3.90;;
67516;SDS011;68821;59.134;37.894;2023-06-14T02:51:56;16.20;;;3.10;;
67516;SDS011;68821;59.134;37.894;2023-06-14T02:54:22;15.80;;;3.65;;
67516;SDS011;68821;59.134;37.894;2023-06-14T02:56:48;15.15;;;3.55;;
67516;SDS011;68821;59.134;37.894;2023-06-14T02:59:15;21.05;;;4.03;;
67516;SDS011;68821;59.134;37.894;2023-06-14T03:01:42;15.55;;;4.30;;
67516;SDS011;68821;59.134;37.894;2023-06-14T03:04:08;12.32;;;3.95;;
67516;SDS011;68821;59.134;37.894;2023-06-14T03:06:35;12.85;;;3.70;;
67516;SDS011;68821;59.134;37.894;2023-06-14T03:09:02;11.40;;;3.85;;
67516;SDS011;68821;59.134;37.894;2023-06-14T03:11:31;18.45;;;4.13;;
67516;SDS011;68821;59.134;37.894;2023-06-14T03:13:57;15.15;;;3.83;;
67516;SDS011;68821;59.134;37.894;2023-06-14T03:16:24;12.07;;;3.50;;
67516;SDS011;68821;59.134;37.894;2023-06-14T03:18:51;12.57;;;3.40;;
67516;SDS011;68821;59.134;37.894;2023-06-14T03:23:45;12.48;;;3.72;;
67516;SDS011;68821;59.134;37.894;2023-06-14T03:26:11;15.63;;;4.35;;
67516;SDS011;68821;59.134;37.894;2023-06-14T03:28:40;16.08;;;4.15;;
67516;SDS011;68821;59.134;37.894;2023-06-14T03:31:07;16.98;;;4.70;;
67516;SDS011;68821;59.134;37.894;2023-06-14T03:36:01;12.75;;;4.55;;
67516;SDS011;68821;59.134;37.894;2023-06-14T03:38:28;16.30;;;4.38;;
67516;SDS011;68821;59.134;37.894;2023-06-14T03:40:55;19.80;;;5.30;;
67516;SDS011;68821;59.134;37.894;2023-06-14T03:43:21;22.92;;;5.07;;
67516;SDS011;68821;59.134;37.894;2023-06-14T03:45:47;16.70;;;5.30;;
67516;SDS011;68821;59.134;37.894;2023-06-14T03:48:13;23.17;;;4.57;;
67516;SDS011;68821;59.134;37.894;2023-06-14T03:50:39;18.63;;;4.82;;
67516;SDS011;68821;59.134;37.894;2023-06-14T03:53:06;26.50;;;4.80;;
67516;SDS011;68821;59.134;37.894;2023-06-14T03:55:32;18.80;;;4.70;;
67516;SDS011;68821;59.134;37.894;2023-06-14T03:57:58;19.45;;;3.90;;
67516;SDS011;68821;59.134;37.894;2023-06-14T04:00:25;13.98;;;4.25;;
67516;SDS011;68821;59.134;37.894;2023-06-14T04:02:52;12.98;;;3.53;;
67516;SDS011;68821;59.134;37.894;2023-06-14T04:05:18;14.80;;;4.30;;
67516;SDS011;68821;59.134;37.894;2023-06-14T04:07:47;18.27;;;4.38;;
67516;SDS011;68821;59.134;37.894;2023-06-14T04:10:14;15.85;;;4.32;;
67516;SDS011;68821;59.134;37.894;2023-06-14T04:12:41;24.67;;;5.78;;
67516;SDS011;68821;59.134;37.894;2023-06-14T04:17:35;42.47;;;10.85;;
67516;SDS011;68821;59.134;37.894;2023-06-14T04:20:02;116.85;;;32.33;;
67516;SDS011;68821;59.134;37.894;2023-06-14T04:22:31;116.85;;;30.42;;
67516;SDS011;68821;59.134;37.894;2023-06-14T04:24:58;129.95;;;36.60;;
67516;SDS011;68821;59.134;37.894;2023-06-14T04:27:27;152.18;;;45.03;;
67516;SDS011;68821;59.134;37.894;2023-06-14T04:29:56;149.45;;;42.97;;
67516;SDS011;68821;59.134;37.894;2023-06-14T04:34:53;63.30;;;17.88;;
67516;SDS011;68821;59.134;37.894;2023-06-14T04:37:20;63.83;;;18.92;;
67516;SDS011;68821;59.134;37.894;2023-06-14T04:39:47;81.53;;;22.60;;
67516;SDS011;68821;59.134;37.894;2023-06-14T04:42:14;57.33;;;16.27;;
67516;SDS011;68821;59.134;37.894;2023-06-14T04:44:42;49.22;;;16.08;;
67516;SDS011;68821;59.134;37.894;2023-06-14T04:47:09;31.15;;;6.93;;
67516;SDS011;68821;59.134;37.894;2023-06-14T04:49:38;33.38;;;7.78;;
67516;SDS011;68821;59.134;37.894;2023-06-14T04:52:06;37.95;;;10.93;;
67516;SDS011;68821;59.134;37.894;2023-06-14T04:54:33;36.03;;;10.20;;
67516;SDS011;68821;59.134;37.894;2023-06-14T04:57:03;51.70;;;11.77;;
67516;SDS011;68821;59.134;37.894;2023-06-14T04:59:31;32.63;;;9.05;;
67516;SDS011;68821;59.134;37.894;2023-06-14T05:01:58;23.95;;;5.50;;
67516;SDS011;68821;59.134;37.894;2023-06-14T05:04:25;42.03;;;9.32;;
67516;SDS011;68821;59.134;37.894;2023-06-14T05:06:53;42.47;;;9.98;;
67516;SDS011;68821;59.134;37.894;2023-06-14T05:09:20;40.13;;;11.23;;
67516;SDS011;68821;59.134;37.894;2023-06-14T05:11:46;29.77;;;7.00;;
67516;SDS011;68821;59.134;37.894;2023-06-14T05:14:13;25.55;;;6.20;;
67516;SDS011;68821;59.134;37.894;2023-06-14T05:16:39;25.95;;;6.72;;
67516;SDS011;68821;59.134;37.894;2023-06-14T05:19:06;22.55;;;5.57;;
67516;SDS011;68821;59.134;37.894;2023-06-14T05:21:32;22.33;;;5.57;;
67516;SDS011;68821;59.134;37.894;2023-06-14T05:24:01;19.27;;;5.88;;
67516;SDS011;68821;59.134;37.894;2023-06-14T05:26:27;20.08;;;6.05;;
67516;SDS011;68821;59.134;37.894;2023-06-14T05:28:57;20.75;;;5.50;;
67516;SDS011;68821;59.134;37.894;2023-06-14T05:31:26;24.40;;;6.45;;
67516;SDS011;68821;59.134;37.894;2023-06-14T05:33:53;18.63;;;6.90;;
67516;SDS011;68821;59.134;37.894;2023-06-14T05:36:20;22.05;;;5.10;;
67516;SDS011;68821;59.134;37.894;2023-06-14T05:38:49;20.98;;;6.40;;
67516;SDS011;68821;59.134;37.894;2023-06-14T05:41:16;15.50;;;5.60;;
67516;SDS011;68821;59.134;37.894;2023-06-14T05:43:42;20.42;;;6.13;;
67516;SDS011;68821;59.134;37.894;2023-06-14T05:46:08;23.58;;;7.18;;
67516;SDS011;68821;59.134;37.894;2023-06-14T05:48:35;21.13;;;6.53;;
67516;SDS011;68821;59.134;37.894;2023-06-14T05:51:01;23.95;;;7.50;;
67516;SDS011;68821;59.134;37.894;2023-06-14T05:53:28;37.60;;;10.55;;
67516;SDS011;68821;59.134;37.894;2023-06-14T05:55:54;30.80;;;9.80;;
67516;SDS011;68821;59.134;37.894;2023-06-14T05:58:21;35.90;;;10.55;;
67516;SDS011;68821;59.134;37.894;2023-06-14T06:00:47;38.38;;;11.30;;
67516;SDS011;68821;59.134;37.894;2023-06-14T06:03:14;32.35;;;10.43;;
67516;SDS011;68821;59.134;37.894;2023-06-14T06:05:40;29.25;;;9.07;;
67516;SDS011;68821;59.134;37.894;2023-06-14T06:08:06;31.00;;;11.75;;
67516;SDS011;68821;59.134;37.894;2023-06-14T06:10:32;54.38;;;17.58;;
67516;SDS011;68821;59.134;37.894;2023-06-14T06:12:58;30.38;;;11.38;;
67516;SDS011;68821;59.134;37.894;2023-06-14T06:15:24;35.78;;;11.75;;
67516;SDS011;68821;59.134;37.894;2023-06-14T06:17:50;43.20;;;12.25;;
67516;SDS011;68821;59.134;37.894;2023-06-14T06:20:16;40.90;;;10.90;;
67516;SDS011;68821;59.134;37.894;2023-06-14T06:22:43;33.65;;;11.70;;
67516;SDS011;68821;59.134;37.894;2023-06-14T06:25:09;34.03;;;9.52;;
67516;SDS011;68821;59.134;37.894;2023-06-14T06:27:35;26.55;;;9.75;;
67516;SDS011;68821;59.134;37.894;2023-06-14T06:30:03;22.73;;;7.50;;
67516;SDS011;68821;59.134;37.894;2023-06-14T06:32:29;19.13;;;6.72;;
67516;SDS011;68821;59.134;37.894;2023-06-14T06:34:55;19.02;;;6.45;;
67516;SDS011;68821;59.134;37.894;2023-06-14T06:37:21;22.48;;;8.70;;
67516;SDS011;68821;59.134;37.894;2023-06-14T06:39:47;31.15;;;10.82;;
67516;SDS011;68821;59.134;37.894;2023-06-14T06:42:16;35.20;;;11.68;;
67516;SDS011;68821;59.134;37.894;2023-06-14T06:44:42;36.38;;;13.38;;
67516;SDS011;68821;59.134;37.894;2023-06-14T06:47:08;39.70;;;14.52;;
67516;SDS011;68821;59.134;37.894;2023-06-14T06:49:35;36.90;;;13.63;;
67516;SDS011;68821;59.134;37.894;2023-06-14T06:52:02;33.47;;;11.60;;
67516;SDS011;68821;59.134;37.894;2023-06-14T06:54:30;34.90;;;11.68;;
67516;SDS011;68821;59.134;37.894;2023-06-14T06:56:57;28.40;;;12.13;;
67516;SDS011;68821;59.134;37.894;2023-06-14T06:59:23;32.75;;;11.13;;
67516;SDS011;68821;59.134;37.894;2023-06-14T07:04:16;15.82;;;6.05;;
67516;SDS011;68821;59.134;37.894;2023-06-14T07:06:42;13.27;;;5.72;;
67516;SDS011;68821;59.134;37.894;2023-06-14T07:09:09;17.25;;;5.78;;
67516;SDS011;68821;59.134;37.894;2023-06-14T07:11:38;10.93;;;3.63;;
67516;SDS011;68821;59.134;37.894;2023-06-14T07:14:05;16.70;;;4.15;;
67516;SDS011;68821;59.134;37.894;2023-06-14T07:16:32;15.38;;;3.70;;
67516;SDS011;68821;59.134;37.894;2023-06-14T07:21:24;17.30;;;3.80;;
67516;SDS011;68821;59.134;37.894;2023-06-14T07:23:54;11.60;;;3.78;;
67516;SDS011;68821;59.134;37.894;2023-06-14T07:26:20;9.95;;;3.38;;
67516;SDS011;68821;59.134;37.894;2023-06-14T07:28:47;13.00;;;3.03;;
67516;SDS011;68821;59.134;37.894;2023-06-14T07:31:14;10.48;;;3.00;;
67516;SDS011;68821;59.134;37.894;2023-06-14T07:33:43;11.50;;;3.15;;
67516;SDS011;68821;59.134;37.894;2023-06-14T07:36:09;14.20;;;3.40;;
67516;SDS011;68821;59.134;37.894;2023-06-14T07:38:35;8.73;;;3.20;;
67516;SDS011;68821;59.134;37.894;2023-06-14T07:41:02;8.93;;;3.40;;
67516;SDS011;68821;59.134;37.894;2023-06-14T07:43:28;8.93;;;3.00;;
67516;SDS011;68821;59.134;37.894;2023-06-14T07:45:55;8.07;;;4.35;;
67516;SDS011;68821;59.134;37.894;2023-06-14T07:48:22;6.57;;;2.90;;
67516;SDS011;68821;59.134;37.894;2023-06-14T07:50:48;6.63;;;2.70;;
67516;SDS011;68821;59.134;37.894;2023-06-14T07:53:14;10.68;;;3.70;;
67516;SDS011;68821;59.134;37.894;2023-06-14T07:55:40;9.07;;;3.95;;
67516;SDS011;68821;59.134;37.894;2023-06-14T07:58:08;7.55;;;3.28;;
67516;SDS011;68821;59.134;37.894;2023-06-14T08:00:36;9.15;;;3.50;;
67516;SDS011;68821;59.134;37.894;2023-06-14T08:03:02;11.13;;;4.50;;
67516;SDS011;68821;59.134;37.894;2023-06-14T08:05:28;12.50;;;4.68;;
67516;SDS011;68821;59.134;37.894;2023-06-14T08:07:54;8.02;;;3.67;;
67516;SDS011;68821;59.134;37.894;2023-06-14T08:12:48;12.23;;;5.03;;
67516;SDS011;68821;59.134;37.894;2023-06-14T08:15:15;13.85;;;4.82;;
67516;SDS011;68821;59.134;37.894;2023-06-14T08:17:43;10.85;;;3.75;;
67516;SDS011;68821;59.134;37.894;2023-06-14T08:20:09;17.33;;;6.57;;
67516;SDS011;68821;59.134;37.894;2023-06-14T08:22:36;19.13;;;4.95;;
67516;SDS011;68821;59.134;37.894;2023-06-14T08:25:03;11.07;;;4.15;;
67516;SDS011;68821;59.134;37.894;2023-06-14T08:27:29;9.30;;;4.45;;
67516;SDS011;68821;59.134;37.894;2023-06-14T08:29:56;10.70;;;4.28;;
67516;SDS011;68821;59.134;37.894;2023-06-14T08:32:22;11.18;;;3.92;;
67516;SDS011;68821;59.134;37.894;2023-06-14T08:34:48;7.32;;;3.10;;
67516;SDS011;68821;59.134;37.894;2023-06-14T08:37:14;16.02;;;6.28;;
67516;SDS011;68821;59.134;37.894;2023-06-14T08:39:40;13.48;;;5.75;;
67516;SDS011;68821;59.134;37.894;2023-06-14T08:42:07;15.55;;;6.97;;
67516;SDS011;68821;59.134;37.894;2023-06-14T08:44:34;23.63;;;8.75;;
67516;SDS011;68821;59.134;37.894;2023-06-14T08:47:00;14.02;;;5.50;;
67516;SDS011;68821;59.134;37.894;2023-06-14T08:49:29;15.57;;;5.40;;
67516;SDS011;68821;59.134;37.894;2023-06-14T08:52:00;20.90;;;7.05;;
67516;SDS011;68821;59.134;37.894;2023-06-14T08:54:29;16.08;;;5.72;;
67516;SDS011;68821;59.134;37.894;2023-06-14T08:56:57;8.55;;;3.28;;
67516;SDS011;68821;59.134;37.894;2023-06-14T08:59:27;6.50;;;2.85;;
67516;SDS011;68821;59.134;37.894;2023-06-14T09:01:54;9.63;;;3.85;;
67516;SDS011;68821;59.134;37.894;2023-06-14T09:04:23;14.77;;;4.90;;
67516;SDS011;68821;59.134;37.894;2023-06-14T09:06:58;9.65;;;3.83;;
67516;SDS011;68821;59.134;37.894;2023-06-14T09:09:24;9.85;;;4.07;;
67516;SDS011;68821;59.134;37.894;2023-06-14T09:11:51;8.23;;;4.50;;
67516;SDS011;68821;59.134;37.894;2023-06-14T09:14:18;14.88;;;5.70;;
67516;SDS011;68821;59.134;37.894;2023-06-14T09:16:44;10.45;;;3.88;;
67516;SDS011;68821;59.134;37.894;2023-06-14T09:19:20;13.05;;;4.22;;
67516;SDS011;68821;59.134;37.894;2023-06-14T09:21:48;10.18;;;4.22;;
67516;SDS011;68821;59.134;37.894;2023-06-14T09:24:15;14.50;;;4.93;;
67516;SDS011;68821;59.134;37.894;2023-06-14T09:26:41;9.05;;;3.88;;
67516;SDS011;68821;59.134;37.894;2023-06-14T09:29:08;16.30;;;5.78;;
67516;SDS011;68821;59.134;37.894;2023-06-14T09:31:35;19.83;;;7.55;;
67516;SDS011;68821;59.134;37.894;2023-06-14T09:34:02;14.00;;;5.63;;
67516;SDS011;68821;59.134;37.894;2023-06-14T09:36:30;15.10;;;6.50;;
67516;SDS011;68821;59.134;37.894;2023-06-14T09:38:58;10.25;;;3.80;;
67516;SDS011;68821;59.134;37.894;2023-06-14T09:41:33;18.02;;;4.57;;
67516;SDS011;68821;59.134;37.894;2023-06-14T09:44:00;11.60;;;4.05;;
67516;SDS011;68821;59.134;37.894;2023-06-14T09:46:28;6.82;;;3.70;;
67516;SDS011;68821;59.134;37.894;2023-06-14T09:48:55;11.90;;;4.82;;
67516;SDS011;68821;59.134;37.894;2023-06-14T09:51:22;15.88;;;5.68;;
67516;SDS011;68821;59.134;37.894;2023-06-14T09:53:49;10.88;;;4.32;;
67516;SDS011;68821;59.134;37.894;2023-06-14T09:56:26;15.68;;;6.25;;
67516;SDS011;68821;59.134;37.894;2023-06-14T09:58:58;15.80;;;6.68;;
67516;SDS011;68821;59.134;37.894;2023-06-14T10:01:26;12.07;;;4.35;;
67516;SDS011;68821;59.134;37.894;2023-06-14T10:04:13;12.15;;;4.25;;
67516;SDS011;68821;59.134;37.894;2023-06-14T10:06:45;18.55;;;5.60;;
67516;SDS011;68821;59.134;37.894;2023-06-14T10:09:12;10.75;;;3.47;;
67516;SDS011;68821;59.134;37.894;2023-06-14T10:11:39;12.82;;;3.50;;
67516;SDS011;68821;59.134;37.894;2023-06-14T10:14:09;10.02;;;3.35;;
67516;SDS011;68821;59.134;37.894;2023-06-14T10:16:39;6.50;;;3.47;;
67516;SDS011;68821;59.134;37.894;2023-06-14T10:24:19;6.85;;;3.53;;
67516;SDS011;68821;59.134;37.894;2023-06-14T10:26:52;11.43;;;4.10;;
67516;SDS011;68821;59.134;37.894;2023-06-14T10:29:19;6.53;;;3.53;;
67516;SDS011;68821;59.134;37.894;2023-06-14T10:31:46;8.85;;;3.15;;
67516;SDS011;68821;59.134;37.894;2023-06-14T10:34:23;11.32;;;3.17;;
67516;SDS011;68821;59.134;37.894;2023-06-14T10:37:03;10.20;;;4.25;;
67516;SDS011;68821;59.134;37.894;2023-06-14T10:39:36;11.80;;;4.68;;
67516;SDS011;68821;59.134;37.894;2023-06-14T10:42:12;9.88;;;4.30;;
67516;SDS011;68821;59.134;37.894;2023-06-14T10:44:39;9.18;;;4.97;;
67516;SDS011;68821;59.134;37.894;2023-06-14T10:47:10;15.45;;;4.97;;
67516;SDS011;68821;59.134;37.894;2023-06-14T10:49:49;6.90;;;3.67;;
67516;SDS011;68821;59.134;37.894;2023-06-14T10:52:22;10.50;;;4.65;;
67516;SDS011;68821;59.134;37.894;2023-06-14T10:55:00;11.43;;;3.78;;
67516;SDS011;68821;59.134;37.894;2023-06-14T10:57:27;14.93;;;4.00;;
67516;SDS011;68821;59.134;37.894;2023-06-14T10:59:53;6.82;;;3.08;;
67516;SDS011;68821;59.134;37.894;2023-06-14T11:05:18;7.35;;;3.15;;
67516;SDS011;68821;59.134;37.894;2023-06-14T11:10:51;6.47;;;3.10;;
67516;SDS011;68821;59.134;37.894;2023-06-14T11:13:19;12.75;;;4.55;;
67516;SDS011;68821;59.134;37.894;2023-06-14T11:15:47;9.07;;;4.28;;
67516;SDS011;68821;59.134;37.894;2023-06-14T11:18:15;10.85;;;3.78;;
67516;SDS011;68821;59.134;37.894;2023-06-14T11:20:42;9.00;;;4.60;;
67516;SDS011;68821;59.134;37.894;2023-06-14T11:23:08;7.35;;;3.53;;
67516;SDS011;68821;59.134;37.894;2023-06-14T11:25:34;7.28;;;3.92;;
67516;SDS011;68821;59.134;37.894;2023-06-14T11:28:00;6.60;;;3.50;;
67516;SDS011;68821;59.134;37.894;2023-06-14T11:30:26;10.35;;;4.22;;
67516;SDS011;68821;59.134;37.894;2023-06-14T11:32:53;6.55;;;3.63;;
67516;SDS011;68821;59.134;37.894;2023-06-14T11:35:24;8.32;;;4.57;;
67516;SDS011;68821;59.134;37.894;2023-06-14T11:37:54;8.52;;;3.40;;
67516;SDS011;68821;59.134;37.894;2023-06-14T11:40:24;13.90;;;4.90;;
67516;SDS011;68821;59.134;37.894;2023-06-14T11:43:00;10.35;;;4.47;;
67516;SDS011;68821;59.134;37.894;2023-06-14T11:45:28;11.23;;;5.15;;
67516;SDS011;68821;59.134;37.894;2023-06-14T11:47:56;16.58;;;7.18;;
67516;SDS011;68821;59.134;37.894;2023-06-14T11:50:22;19.95;;;8.32;;
67516;SDS011;68821;59.134;37.894;2023-06-14T11:52:52;16.60;;;7.40;;
67516;SDS011;68821;59.134;37.894;2023-06-14T11:55:20;12.68;;;7.43;;
67516;SDS011;68821;59.134;37.894;2023-06-14T11:57:46;9.90;;;5.82;;
67516;SDS011;68821;59.134;37.894;2023-06-14T12:00:12;13.25;;;6.63;;
67516;SDS011;68821;59.134;37.894;2023-06-14T12:02:42;11.63;;;5.80;;
67516;SDS011;68821;59.134;37.894;2023-06-14T12:05:20;9.40;;;3.75;;
67516;SDS011;68821;59.134;37.894;2023-06-14T12:07:46;17.17;;;4.88;;
67516;SDS011;68821;59.134;37.894;2023-06-14T12:10:13;13.38;;;5.47;;
67516;SDS011;68821;59.134;37.894;2023-06-14T12:12:40;8.48;;;4.85;;
67516;SDS011;68821;59.134;37.894;2023-06-14T12:15:08;8.18;;;4.30;;
67516;SDS011;68821;59.134;37.894;2023-06-14T12:17:37;7.57;;;3.85;;
67516;SDS011;68821;59.134;37.894;2023-06-14T12:20:11;5.93;;;3.75;;
67516;SDS011;68821;59.134;37.894;2023-06-14T12:28:08;13.10;;;7.47;;
67516;SDS011;68821;59.134;37.894;2023-06-14T12:30:36;8.00;;;4.68;;
67516;SDS011;68821;59.134;37.894;2023-06-14T12:33:03;11.10;;;5.80;;
67516;SDS011;68821;59.134;37.894;2023-06-14T12:35:30;17.38;;;7.07;;
67516;SDS011;68821;59.134;37.894;2023-06-14T12:37:56;20.73;;;9.52;;
67516;SDS011;68821;59.134;37.894;2023-06-14T12:40:22;28.33;;;12.77;;
67516;SDS011;68821;59.134;37.894;2023-06-14T12:42:49;11.27;;;5.07;;
67516;SDS011;68821;59.134;37.894;2023-06-14T12:45:15;9.30;;;4.60;;
67516;SDS011;68821;59.134;37.894;2023-06-14T12:47:41;8.48;;;4.47;;
67516;SDS011;68821;59.134;37.894;2023-06-14T12:50:08;7.22;;;4.45;;
67516;SDS011;68821;59.134;37.894;2023-06-14T12:52:34;8.38;;;4.32;;
67516;SDS011;68821;59.134;37.894;2023-06-14T12:55:04;8.65;;;4.05;;
67516;SDS011;68821;59.134;37.894;2023-06-14T12:57:31;9.80;;;5.10;;
67516;SDS011;68821;59.134;37.894;2023-06-14T12:59:59;7.35;;;4.72;;
67516;SDS011;68821;59.134;37.894;2023-06-14T13:02:26;8.40;;;4.72;;
67516;SDS011;68821;59.134;37.894;2023-06-14T13:04:52;7.38;;;4.35;;
67516;SDS011;68821;59.134;37.894;2023-06-14T13:07:18;6.13;;;4.20;;
67516;SDS011;68821;59.134;37.894;2023-06-14T13:09:44;7.68;;;4.53;;
67516;SDS011;68821;59.134;37.894;2023-06-14T13:12:10;17.25;;;5.97;;
67516;SDS011;68821;59.134;37.894;2023-06-14T13:14:38;32.45;;;7.28;;
67516;SDS011;68821;59.134;37.894;2023-06-14T13:17:06;16.00;;;5.72;;
67516;SDS011;68821;59.134;37.894;2023-06-14T13:19:34;12.13;;;5.40;;
67516;SDS011;68821;59.134;37.894;2023-06-14T13:22:00;14.57;;;5.43;;
67516;SDS011;68821;59.134;37.894;2023-06-14T13:24:26;10.48;;;4.43;;
67516;SDS011;68821;59.134;37.894;2023-06-14T13:26:53;22.00;;;4.68;;
67516;SDS011;68821;59.134;37.894;2023-06-14T13:31:46;10.90;;;4.53;;
67516;SDS011;68821;59.134;37.894;2023-06-14T13:36:38;11.50;;;5.07;;
67516;SDS011;68821;59.134;37.894;2023-06-14T13:39:07;7.70;;;3.90;;
67516;SDS011;68821;59.134;37.894;2023-06-14T13:41:33;10.85;;;3.75;;
67516;SDS011;68821;59.134;37.894;2023-06-14T13:44:00;8.68;;;4.60;;
67516;SDS011;68821;59.134;37.894;2023-06-14T13:46:29;15.82;;;6.25;;
67516;SDS011;68821;59.134;37.894;2023-06-14T13:51:22;9.77;;;4.40;;
67516;SDS011;68821;59.134;37.894;2023-06-14T13:56:18;12.02;;;5.00;;
67516;SDS011;68821;59.134;37.894;2023-06-14T13:58:44;14.68;;;5.35;;
67516;SDS011;68821;59.134;37.894;2023-06-14T14:01:11;13.35;;;4.50;;
67516;SDS011;68821;59.134;37.894;2023-06-14T14:03:40;13.50;;;4.68;;
67516;SDS011;68821;59.134;37.894;2023-06-14T14:06:07;7.82;;;3.67;;
67516;SDS011;68821;59.134;37.894;2023-06-14T14:08:33;6.55;;;3.50;;
67516;SDS011;68821;59.134;37.894;2023-06-14T14:11:00;10.30;;;4.47;;
67516;SDS011;68821;59.134;37.894;2023-06-14T14:13:26;10.75;;;4.15;;
67516;SDS011;68821;59.134;37.894;2023-06-14T14:15:53;7.38;;;4.30;;
67516;SDS011;68821;59.134;37.894;2023-06-14T14:18:19;11.35;;;4.38;;
67516;SDS011;68821;59.134;37.894;2023-06-14T14:20:48;9.68;;;3.83;;
67516;SDS011;68821;59.134;37.894;2023-06-14T14:23:14;6.32;;;4.05;;
67516;SDS011;68821;59.134;37.894;2023-06-14T14:25:40;6.80;;;3.42;;
67516;SDS011;68821;59.134;37.894;2023-06-14T14:28:06;8.93;;;4.57;;
67516;SDS011;68821;59.134;37.894;2023-06-14T14:30:32;15.80;;;5.57;;
67516;SDS011;68821;59.134;37.894;2023-06-14T14:32:59;7.82;;;4.10;;
67516;SDS011;68821;59.134;37.894;2023-06-14T14:35:25;9.93;;;5.07;;
67516;SDS011;68821;59.134;37.894;2023-06-14T14:37:56;13.95;;;4.57;;
67516;SDS011;68821;59.134;37.894;2023-06-14T14:40:22;21.95;;;5.07;;
67516;SDS011;68821;59.134;37.894;2023-06-14T14:45:14;15.82;;;5.53;;
67516;SDS011;68821;59.134;37.894;2023-06-14T14:47:40;11.05;;;4.40;;
67516;SDS011;68821;59.134;37.894;2023-06-14T14:50:06;7.95;;;5.10;;
67516;SDS011;68821;59.134;37.894;2023-06-14T14:52:34;10.40;;;4.65;;
67516;SDS011;68821;59.134;37.894;2023-06-14T14:55:01;7.00;;;3.97;;
67516;SDS011;68821;59.134;37.894;2023-06-14T14:57:27;16.95;;;4.90;;
67516;SDS011;68821;59.134;37.894;2023-06-14T14:59:55;11.75;;;4.32;;
67516;SDS011;68821;59.134;37.894;2023-06-14T15:02:23;8.55;;;4.00;;
67516;SDS011;68821;59.134;37.894;2023-06-14T15:04:49;7.03;;;3.47;;
67516;SDS011;68821;59.134;37.894;2023-06-14T15:07:16;12.90;;;4.85;;
67516;SDS011;68821;59.134;37.894;2023-06-14T15:09:42;11.30;;;4.50;;
67516;SDS011;68821;59.134;37.894;2023-06-14T15:12:08;11.35;;;5.03;;
67516;SDS011;68821;59.134;37.894;2023-06-14T15:14:36;10.50;;;4.53;;